»·PEaware :: SWA591 KSFO-KSNA

SWA591 :: KSFO-KSNA

FLIGHT INFORMATION

Flight Status: Arrived
Operator:
Southwest Airlines
More flights by this operator :: More flights under this callsign
Pilot: Paul A. (20189)
Aircraft: BOEING 737-700
(B737)
More flights by this aircraft type
Origin: KSFO San Francisco Intl
United States
Destination: KSNA John Wayne-Orange Co
United States
More flights between these airports :: More routes between these airports
Route: SAHEY3 CISKO RDHOT OHSEA1
File this flight plan on PilotEdge
Remarks:
Altitude:
(Current/Filed)
33,000ft
Speed:
(Current/Filed)
455kts
Departed: 29-Nov-18 11:55 AM
Arrived: 29-Nov-18 01:02 PM
Distance/Time
Traveled:
323nm/1:07
Distance/Time
To Go:
Arrived

Flight Plot

Page will automatically refresh every two minutes.

Flight plan parsing failed; only flown route is shown


Map Options




Map Legend


Flown Route
Filed Route
Departure Airport
Arrival Airport
Navaid (VOR, NDB)
Fix

Horizontal Profiles

Position Reports

Time Latitude Longitude Heading Altitude Ground
Speed
29-Nov-18 11:40 37.613354 -122.383656 211 20ft 0kts
29-Nov-18 11:41 37.613354 -122.383656 211 20ft 0kts
29-Nov-18 11:42 37.613354 -122.383656 211 20ft 0kts
29-Nov-18 11:43 37.613354 -122.383656 211 20ft 0kts
29-Nov-18 11:44 37.613354 -122.383656 211 20ft 0kts
29-Nov-18 11:45 37.613354 -122.383656 211 20ft 0kts
29-Nov-18 11:46 37.613913 -122.383326 180 20ft 2kts
29-Nov-18 11:47 37.614053 -122.383348 163 20ft 0kts
29-Nov-18 11:48 37.614053 -122.383348 163 20ft 0kts
29-Nov-18 11:49 37.614053 -122.383348 163 20ft 0kts
29-Nov-18 11:50 37.613905 -122.383222 135 20ft 9kts
29-Nov-18 11:51 37.617515 -122.379496 0 20ft 15kts
29-Nov-18 11:52 37.620763 -122.382928 296 20ft 23kts
29-Nov-18 11:53 37.623737 -122.390020 297 20ft 24kts
29-Nov-18 11:54 37.626572 -122.395563 321 20ft 15kts
29-Nov-18 11:55 37.628489 -122.395635 109 20ft 7kts
29-Nov-18 11:56 37.627095 -122.392790 148 20ft 0kts
29-Nov-18 11:57 37.626454 -122.392327 152 20ft 6kts
29-Nov-18 11:58 37.618318 -122.374276 120 124ft 165kts
29-Nov-18 11:59 37.597412 -122.322214 120 2823ft 197kts
29-Nov-18 12:00 37.566743 -122.245457 132 4982ft 272kts
29-Nov-18 12:01 37.510795 -122.178313 144 8660ft 288kts
29-Nov-18 12:02 37.447772 -122.109862 145 11656ft 323kts
29-Nov-18 12:03 37.371555 -122.030377 145 13989ft 374kts
29-Nov-18 12:04 37.301664 -121.964040 150 16701ft 382kts
29-Nov-18 12:05 37.196581 -121.872491 149 19913ft 404kts
29-Nov-18 12:06 37.118316 -121.803831 149 21899ft 417kts
29-Nov-18 12:07 37.004357 -121.703416 149 22611ft 446kts
29-Nov-18 12:08 36.917875 -121.627398 149 22615ft 464kts
29-Nov-18 12:09 36.792295 -121.517493 149 22631ft 480kts
29-Nov-18 12:10 36.705482 -121.441785 150 23046ft 432kts
29-Nov-18 12:11 36.606042 -121.355124 150 24733ft 443kts
29-Nov-18 12:12 36.506321 -121.268725 151 26117ft 455kts
29-Nov-18 12:13 36.401537 -121.178356 152 27403ft 464kts
29-Nov-18 12:14 36.298605 -121.076936 147 28525ft 479kts
29-Nov-18 12:15 36.196112 -120.971233 148 29827ft 479kts
29-Nov-18 12:16 36.096677 -120.869573 149 31080ft 478kts
29-Nov-18 12:17 35.994274 -120.765117 149 32283ft 478kts
29-Nov-18 12:18 35.893816 -120.662987 149 32723ft 496kts
29-Nov-18 12:19 35.785546 -120.553743 150 32729ft 496kts
29-Nov-18 12:20 35.679917 -120.447538 150 32730ft 483kts
29-Nov-18 12:21 35.576447 -120.343979 150 32745ft 477kts
29-Nov-18 12:22 35.473457 -120.241061 150 32759ft 478kts
29-Nov-18 12:23 35.370237 -120.138247 151 32770ft 478kts
29-Nov-18 12:24 35.267307 -120.035427 151 32790ft 480kts
29-Nov-18 12:25 35.163841 -119.932795 152 32810ft 474kts
29-Nov-18 12:26 35.063459 -119.833487 150 32820ft 477kts
29-Nov-18 12:27 34.968826 -119.720580 146 32825ft 485kts
29-Nov-18 12:28 34.872907 -119.604392 146 32833ft 485kts
29-Nov-18 12:29 34.776905 -119.488469 147 32839ft 485kts
29-Nov-18 12:30 34.683595 -119.376941 147 32844ft 485kts
29-Nov-18 12:31 34.587559 -119.261920 147 32847ft 486kts
29-Nov-18 12:32 34.498079 -119.154738 148 30552ft 482kts
29-Nov-18 12:33 34.402364 -119.043524 148 28109ft 462kts
29-Nov-18 12:34 34.310559 -118.938594 148 25926ft 447kts
29-Nov-18 12:35 34.222686 -118.848559 162 23860ft 417kts
29-Nov-18 12:36 34.119185 -118.802279 174 21688ft 379kts
29-Nov-18 12:37 34.022836 -118.764735 174 19688ft 351kts
29-Nov-18 12:38 33.934296 -118.730495 174 18340ft 342kts
29-Nov-18 12:39 33.849141 -118.697593 173 17152ft 334kts
29-Nov-18 12:40 33.761381 -118.663794 172 15926ft 328kts
29-Nov-18 12:41 33.675014 -118.632738 172 14745ft 320kts
29-Nov-18 12:42 33.592266 -118.593331 145 13190ft 344kts
29-Nov-18 12:43 33.538049 -118.496634 127 10696ft 347kts
29-Nov-18 12:44 33.518901 -118.384640 93 8191ft 343kts
29-Nov-18 12:45 33.535309 -118.275606 66 5693ft 330kts
29-Nov-18 12:46 33.564659 -118.187341 66 5042ft 321kts
29-Nov-18 12:47 33.610278 -118.100299 53 4959ft 292kts
29-Nov-18 12:48 33.654979 -118.020980 54 5001ft 288kts
29-Nov-18 12:49 33.702751 -117.944444 34 4972ft 279kts
29-Nov-18 12:50 33.757684 -117.895174 32 4927ft 220kts
29-Nov-18 12:51 33.805878 -117.850817 32 4974ft 218kts
29-Nov-18 12:52 33.854106 -117.806376 32 4970ft 218kts
29-Nov-18 12:53 33.908487 -117.778696 12 4964ft 211kts
29-Nov-18 12:54 33.963727 -117.755081 12 4973ft 211kts
29-Nov-18 12:55 34.009520 -117.716571 89 4879ft 220kts
29-Nov-18 12:56 33.968663 -117.692359 192 5017ft 173kts
29-Nov-18 12:57 33.925706 -117.709633 214 4975ft 161kts
29-Nov-18 12:58 33.886053 -117.735146 214 4497ft 162kts
29-Nov-18 12:59 33.846722 -117.760221 213 3646ft 159kts
29-Nov-18 13:00 33.807611 -117.785103 213 2806ft 156kts
29-Nov-18 13:01 33.770737 -117.808537 212 2003ft 149kts
29-Nov-18 13:02 33.734818 -117.831340 210 1221ft 134kts
29-Nov-18 13:03 33.703215 -117.851387 209 547ft 128kts
29-Nov-18 13:04 33.673505 -117.870285 210 64ft 62kts
29-Nov-18 13:05 33.669263 -117.871736 132 64ft 0kts
29-Nov-18 13:06 33.669262 -117.871735 132 64ft 0kts
29-Nov-18 13:07 33.669213 -117.871671 131 63ft 0kts
29-Nov-18 13:08 33.670865 -117.869101 39 63ft 17kts
29-Nov-18 13:09 33.674822 -117.866027 28 63ft 19kts

Navigation Log

Ident Type
Flight plan parsing failed, navigation log unavailable